sensor_id;sensor_type;location;lat;lon;timestamp;pressure;altitude;pressure_sealevel;temperature;humidity
53908;BME280;40469;47.998;7.794;2022-11-15T00:01:35;98687.41;;;11.11;100.00
53908;BME280;40469;47.998;7.794;2022-11-15T00:04:03;98678.72;;;11.09;100.00
53908;BME280;40469;47.998;7.794;2022-11-15T00:06:28;98683.00;;;11.13;100.00
53908;BME280;40469;47.998;7.794;2022-11-15T00:08:54;98678.72;;;11.09;100.00
53908;BME280;40469;47.998;7.794;2022-11-15T00:11:19;98687.41;;;11.09;100.00
53908;BME280;40469;47.998;7.794;2022-11-15T00:13:44;98682.16;;;11.12;100.00
53908;BME280;40469;47.998;7.794;2022-11-15T00:16:10;98679.56;;;11.11;100.00
53908;BME280;40469;47.998;7.794;2022-11-15T00:18:36;98674.38;;;11.08;100.00
53908;BME280;40469;47.998;7.794;2022-11-15T00:21:04;98663.91;;;11.09;100.00
53908;BME280;40469;47.998;7.794;2022-11-15T00:23:31;98662.22;;;11.07;100.00
53908;BME280;40469;47.998;7.794;2022-11-15T00:25:57;98668.25;;;11.10;100.00
53908;BME280;40469;47.998;7.794;2022-11-15T00:28:23;98659.53;;;11.10;100.00
53908;BME280;40469;47.998;7.794;2022-11-15T00:30:49;98663.84;;;11.12;100.00
53908;BME280;40469;47.998;7.794;2022-11-15T00:33:14;98669.97;;;11.11;100.00
53908;BME280;40469;47.998;7.794;2022-11-15T00:35:39;98656.03;;;11.11;100.00
53908;BME280;40469;47.998;7.794;2022-11-15T00:38:05;98656.91;;;11.11;100.00
53908;BME280;40469;47.998;7.794;2022-11-15T00:40:30;98663.84;;;11.14;100.00
53908;BME280;40469;47.998;7.794;2022-11-15T00:42:56;98661.19;;;11.15;100.00
53908;BME280;40469;47.998;7.794;2022-11-15T00:45:22;98655.91;;;11.17;100.00
53908;BME280;40469;47.998;7.794;2022-11-15T00:47:48;98660.31;;;11.15;100.00
53908;BME280;40469;47.998;7.794;2022-11-15T00:50:13;98654.22;;;11.16;100.00
53908;BME280;40469;47.998;7.794;2022-11-15T00:52:38;98656.00;;;11.14;100.00
53908;BME280;40469;47.998;7.794;2022-11-15T00:55:04;98658.59;;;11.15;100.00
53908;BME280;40469;47.998;7.794;2022-11-15T00:57:29;98654.22;;;11.16;100.00
53908;BME280;40469;47.998;7.794;2022-11-15T00:59:55;98653.25;;;11.22;100.00
53908;BME280;40469;47.998;7.794;2022-11-15T01:02:20;98649.84;;;11.16;100.00
53908;BME280;40469;47.998;7.794;2022-11-15T01:04:45;98645.53;;;11.14;100.00
53908;BME280;40469;47.998;7.794;2022-11-15T01:07:11;98639.50;;;11.10;100.00
53908;BME280;40469;47.998;7.794;2022-11-15T01:09:36;98627.38;;;11.06;100.00
53908;BME280;40469;47.998;7.794;2022-11-15T01:12:02;98637.00;;;11.04;100.00
53908;BME280;40469;47.998;7.794;2022-11-15T01:14:27;98631.94;;;10.95;100.00
53908;BME280;40469;47.998;7.794;2022-11-15T01:16:52;98632.81;;;10.94;100.00
53908;BME280;40469;47.998;7.794;2022-11-15T01:19:18;98635.38;;;10.97;100.00
53908;BME280;40469;47.998;7.794;2022-11-15T01:21:43;98640.63;;;10.94;100.00
53908;BME280;40469;47.998;7.794;2022-11-15T01:24:11;98633.53;;;11.04;100.00
53908;BME280;40469;47.998;7.794;2022-11-15T01:26:37;98636.28;;;10.96;100.00
53908;BME280;40469;47.998;7.794;2022-11-15T01:29:02;98625.03;;;10.91;100.00
53908;BME280;40469;47.998;7.794;2022-11-15T01:31:28;98629.31;;;10.95;100.00
53908;BME280;40469;47.998;7.794;2022-11-15T01:33:53;98623.22;;;10.96;100.00
53908;BME280;40469;47.998;7.794;2022-11-15T01:36:21;98619.84;;;10.89;100.00
53908;BME280;40469;47.998;7.794;2022-11-15T01:38:58;98624.97;;;10.92;100.00
53908;BME280;40469;47.998;7.794;2022-11-15T01:41:30;98618.00;;;10.96;100.00
53908;BME280;40469;47.998;7.794;2022-11-15T01:44:28;98619.75;;;10.94;100.00
53908;BME280;40469;47.998;7.794;2022-11-15T01:46:46;98613.47;;;11.04;100.00
53908;BME280;40469;47.998;7.794;2022-11-15T01:49:15;98609.81;;;11.14;100.00
53908;BME280;40469;47.998;7.794;2022-11-15T01:51:41;98607.75;;;11.33;100.00
53908;BME280;40469;47.998;7.794;2022-11-15T01:54:12;98602.97;;;11.54;100.00
53908;BME280;40469;47.998;7.794;2022-11-15T01:57:01;98601.25;;;11.53;100.00
53908;BME280;40469;47.998;7.794;2022-11-15T01:59:27;98607.13;;;11.64;100.00
53908;BME280;40469;47.998;7.794;2022-11-15T02:01:52;98611.25;;;11.76;100.00
53908;BME280;40469;47.998;7.794;2022-11-15T02:04:29;98607.84;;;11.72;100.00
53908;BME280;40469;47.998;7.794;2022-11-15T02:06:56;98602.53;;;11.32;100.00
53908;BME280;40469;47.998;7.794;2022-11-15T02:09:22;98603.63;;;11.20;100.00
53908;BME280;40469;47.998;7.794;2022-11-15T02:11:48;98600.56;;;10.96;100.00
53908;BME280;40469;47.998;7.794;2022-11-15T02:14:15;98596.56;;;10.75;100.00
53908;BME280;40469;47.998;7.794;2022-11-15T02:16:48;98597.59;;;10.65;100.00
53908;BME280;40469;47.998;7.794;2022-11-15T02:19:39;98593.50;;;10.49;100.00
53908;BME280;40469;47.998;7.794;2022-11-15T02:22:21;98587.50;;;10.42;100.00
53908;BME280;40469;47.998;7.794;2022-11-15T02:27:57;98594.22;;;10.57;100.00
53908;BME280;40469;47.998;7.794;2022-11-15T02:30:57;98599.56;;;10.49;100.00
53908;BME280;40469;47.998;7.794;2022-11-15T02:38:41;98578.47;;;10.65;100.00
53908;BME280;40469;47.998;7.794;2022-11-15T02:41:15;98567.13;;;10.64;100.00
53908;BME280;40469;47.998;7.794;2022-11-15T02:43:53;98570.50;;;10.72;100.00
53908;BME280;40469;47.998;7.794;2022-11-15T02:49:14;98556.47;;;10.76;100.00
53908;BME280;40469;47.998;7.794;2022-11-15T02:51:40;98558.44;;;10.65;100.00
53908;BME280;40469;47.998;7.794;2022-11-15T02:54:07;98564.59;;;10.61;100.00
53908;BME280;40469;47.998;7.794;2022-11-15T02:56:35;98557.59;;;10.63;100.00
53908;BME280;40469;47.998;7.794;2022-11-15T03:04:45;98556.00;;;10.54;100.00
53908;BME280;40469;47.998;7.794;2022-11-15T03:11:09;98561.25;;;10.51;100.00
53908;BME280;40469;47.998;7.794;2022-11-15T03:18:31;98567.63;;;10.30;100.00
53908;BME280;40469;47.998;7.794;2022-11-15T03:21:00;98568.63;;;10.23;100.00
53908;BME280;40469;47.998;7.794;2022-11-15T03:23:28;98561.59;;;10.27;100.00
53908;BME280;40469;47.998;7.794;2022-11-15T03:25:56;98563.34;;;10.26;100.00
53908;BME280;40469;47.998;7.794;2022-11-15T03:28:34;98558.28;;;10.18;100.00
53908;BME280;40469;47.998;7.794;2022-11-15T03:31:02;98572.84;;;10.30;100.00
53908;BME280;40469;47.998;7.794;2022-11-15T03:33:50;98554.69;;;10.24;100.00
53908;BME280;40469;47.998;7.794;2022-11-15T03:36:19;98557.34;;;10.21;100.00
53908;BME280;40469;47.998;7.794;2022-11-15T03:38:46;98552.19;;;10.16;100.00
53908;BME280;40469;47.998;7.794;2022-11-15T03:41:56;98544.44;;;10.13;100.00
53908;BME280;40469;47.998;7.794;2022-11-15T03:44:46;98552.31;;;10.09;100.00
53908;BME280;40469;47.998;7.794;2022-11-15T03:47:20;98547.94;;;10.11;100.00
53908;BME280;40469;47.998;7.794;2022-11-15T03:49:56;98554.78;;;10.18;100.00
53908;BME280;40469;47.998;7.794;2022-11-15T03:52:23;98548.66;;;10.22;100.00
53908;BME280;40469;47.998;7.794;2022-11-15T03:54:50;98549.50;;;10.22;100.00
53908;BME280;40469;47.998;7.794;2022-11-15T03:57:17;98543.50;;;10.16;100.00
53908;BME280;40469;47.998;7.794;2022-11-15T03:59:42;98549.38;;;10.30;100.00
53908;BME280;40469;47.998;7.794;2022-11-15T04:02:08;98555.50;;;10.29;100.00
53908;BME280;40469;47.998;7.794;2022-11-15T04:04:33;98551.97;;;10.30;100.00
53908;BME280;40469;47.998;7.794;2022-11-15T04:06:58;98559.78;;;10.35;100.00
53908;BME280;40469;47.998;7.794;2022-11-15T04:09:24;98548.50;;;10.33;100.00
53908;BME280;40469;47.998;7.794;2022-11-15T04:11:49;98548.56;;;10.25;100.00
53908;BME280;40469;47.998;7.794;2022-11-15T04:14:14;98557.31;;;10.24;100.00
53908;BME280;40469;47.998;7.794;2022-11-15T04:16:40;98554.59;;;10.30;100.00
53908;BME280;40469;47.998;7.794;2022-11-15T04:19:05;98549.44;;;10.27;100.00
53908;BME280;40469;47.998;7.794;2022-11-15T04:21:49;98552.91;;;10.28;100.00
53908;BME280;40469;47.998;7.794;2022-11-15T04:24:33;98560.97;;;10.11;100.00
53908;BME280;40469;47.998;7.794;2022-11-15T04:26:58;98549.72;;;10.07;100.00
53908;BME280;40469;47.998;7.794;2022-11-15T04:29:24;98554.97;;;10.04;100.00
53908;BME280;40469;47.998;7.794;2022-11-15T04:32:06;98549.03;;;9.96;100.00
53908;BME280;40469;47.998;7.794;2022-11-15T04:34:32;98550.78;;;9.94;100.00
53908;BME280;40469;47.998;7.794;2022-11-15T04:36:58;98546.41;;;9.96;100.00
53908;BME280;40469;47.998;7.794;2022-11-15T04:39:39;98548.25;;;9.89;100.00
53908;BME280;40469;47.998;7.794;2022-11-15T04:42:05;98543.03;;;9.89;100.00
53908;BME280;40469;47.998;7.794;2022-11-15T04:44:30;98542.88;;;9.98;100.00
53908;BME280;40469;47.998;7.794;2022-11-15T04:46:56;98543.81;;;9.96;100.00
53908;BME280;40469;47.998;7.794;2022-11-15T04:49:21;98543.81;;;9.94;100.00
53908;BME280;40469;47.998;7.794;2022-11-15T04:51:46;98549.06;;;9.91;100.00
53908;BME280;40469;47.998;7.794;2022-11-15T04:54:12;98543.03;;;9.89;100.00
53908;BME280;40469;47.998;7.794;2022-11-15T04:56:37;98542.09;;;9.93;100.00
53908;BME280;40469;47.998;7.794;2022-11-15T04:59:02;98541.22;;;9.94;100.00
53908;BME280;40469;47.998;7.794;2022-11-15T05:01:28;98543.81;;;9.94;100.00
53908;BME280;40469;47.998;7.794;2022-11-15T05:03:53;98531.59;;;9.98;100.00
53908;BME280;40469;47.998;7.794;2022-11-15T05:06:37;98531.50;;;10.04;100.00
53908;BME280;40469;47.998;7.794;2022-11-15T05:09:02;98527.19;;;10.03;100.00
53908;BME280;40469;47.998;7.794;2022-11-15T05:11:28;98527.06;;;10.09;100.00
53908;BME280;40469;47.998;7.794;2022-11-15T05:13:53;98538.31;;;10.14;100.00
53908;BME280;40469;47.998;7.794;2022-11-15T05:16:18;98540.75;;;10.25;100.00
53908;BME280;40469;47.998;7.794;2022-11-15T05:18:44;98533.72;;;10.29;100.00
53908;BME280;40469;47.998;7.794;2022-11-15T05:21:12;98530.28;;;10.27;100.00
53908;BME280;40469;47.998;7.794;2022-11-15T05:23:38;98537.22;;;10.31;100.00
53908;BME280;40469;47.998;7.794;2022-11-15T05:26:05;98521.56;;;10.31;100.00
53908;BME280;40469;47.998;7.794;2022-11-15T05:28:31;98530.28;;;10.28;100.00
53908;BME280;40469;47.998;7.794;2022-11-15T05:31:03;98521.66;;;10.23;100.00
53908;BME280;40469;47.998;7.794;2022-11-15T05:33:29;98521.50;;;10.34;100.00
53908;BME280;40469;47.998;7.794;2022-11-15T05:35:59;98523.47;;;10.18;100.00
53908;BME280;40469;47.998;7.794;2022-11-15T05:38:25;98516.63;;;10.11;100.00
53908;BME280;40469;47.998;7.794;2022-11-15T05:40:51;98518.41;;;10.09;100.00
53908;BME280;40469;47.998;7.794;2022-11-15T05:43:16;98514.63;;;10.27;100.00
53908;BME280;40469;47.998;7.794;2022-11-15T05:45:42;98510.34;;;10.24;100.00
53908;BME280;40469;47.998;7.794;2022-11-15T05:48:09;98506.97;;;10.16;100.00
53908;BME280;40469;47.998;7.794;2022-11-15T05:50:36;98498.31;;;10.15;100.00
53908;BME280;40469;47.998;7.794;2022-11-15T05:53:04;98500.75;;;10.26;100.00
53908;BME280;40469;47.998;7.794;2022-11-15T05:55:31;98491.34;;;10.14;100.00
53908;BME280;40469;47.998;7.794;2022-11-15T05:57:56;98497.44;;;10.15;100.00
53908;BME280;40469;47.998;7.794;2022-11-15T06:00:22;98499.13;;;10.17;100.00
53908;BME280;40469;47.998;7.794;2022-11-15T06:02:47;98493.97;;;10.13;100.00
53908;BME280;40469;47.998;7.794;2022-11-15T06:05:12;98493.09;;;10.14;100.00
53908;BME280;40469;47.998;7.794;2022-11-15T06:07:38;98490.50;;;10.14;100.00
53908;BME280;40469;47.998;7.794;2022-11-15T06:10:03;98496.69;;;10.08;100.00
53908;BME280;40469;47.998;7.794;2022-11-15T06:12:29;98498.50;;;10.03;100.00
53908;BME280;40469;47.998;7.794;2022-11-15T06:14:54;98501.94;;;10.03;100.00
53908;BME280;40469;47.998;7.794;2022-11-15T06:17:20;98490.66;;;10.03;100.00
53908;BME280;40469;47.998;7.794;2022-11-15T06:19:45;98494.97;;;10.05;100.00
53908;BME280;40469;47.998;7.794;2022-11-15T06:22:11;98490.66;;;10.04;100.00
53908;BME280;40469;47.998;7.794;2022-11-15T06:24:36;98491.53;;;10.03;100.00
53908;BME280;40469;47.998;7.794;2022-11-15T06:27:01;98494.16;;;10.00;100.00
53908;BME280;40469;47.998;7.794;2022-11-15T06:29:27;98498.41;;;10.07;100.00
53908;BME280;40469;47.998;7.794;2022-11-15T06:31:52;98497.59;;;10.04;100.00
53908;BME280;40469;47.998;7.794;2022-11-15T06:34:18;98499.28;;;10.10;100.00
53908;BME280;40469;47.998;7.794;2022-11-15T06:36:43;98497.56;;;10.05;100.00
53908;BME280;40469;47.998;7.794;2022-11-15T06:39:09;98493.97;;;10.13;100.00
53908;BME280;40469;47.998;7.794;2022-11-15T06:41:34;98487.94;;;10.09;100.00
53908;BME280;40469;47.998;7.794;2022-11-15T06:44:00;98491.47;;;10.06;100.00
53908;BME280;40469;47.998;7.794;2022-11-15T06:46:26;98490.63;;;10.06;100.00
53908;BME280;40469;47.998;7.794;2022-11-15T06:48:52;98487.97;;;10.07;100.00
53908;BME280;40469;47.998;7.794;2022-11-15T06:51:18;98494.91;;;10.10;100.00
53908;BME280;40469;47.998;7.794;2022-11-15T06:53:44;98493.09;;;10.15;100.00
53908;BME280;40469;47.998;7.794;2022-11-15T06:56:09;98490.38;;;10.20;100.00
53908;BME280;40469;47.998;7.794;2022-11-15T06:58:35;98494.78;;;10.18;100.00
53908;BME280;40469;47.998;7.794;2022-11-15T07:01:06;98490.38;;;10.20;100.00
53908;BME280;40469;47.998;7.794;2022-11-15T07:03:34;98489.47;;;10.24;100.00
53908;BME280;40469;47.998;7.794;2022-11-15T07:05:59;98480.00;;;10.18;100.00
53908;BME280;40469;47.998;7.794;2022-11-15T07:08:27;98486.88;;;10.22;100.00
53908;BME280;40469;47.998;7.794;2022-11-15T07:10:53;98487.69;;;10.26;100.00
53908;BME280;40469;47.998;7.794;2022-11-15T07:13:19;98479.88;;;10.26;100.00
53908;BME280;40469;47.998;7.794;2022-11-15T07:15:44;98487.66;;;10.29;100.00
53908;BME280;40469;47.998;7.794;2022-11-15T07:18:10;98493.63;;;10.36;100.00
53908;BME280;40469;47.998;7.794;2022-11-15T07:20:35;98493.59;;;10.39;100.00
53908;BME280;40469;47.998;7.794;2022-11-15T07:23:01;98491.81;;;10.41;100.00
53908;BME280;40469;47.998;7.794;2022-11-15T07:25:27;98486.56;;;10.44;100.00
53908;BME280;40469;47.998;7.794;2022-11-15T07:27:57;98492.69;;;10.41;100.00
53908;BME280;40469;47.998;7.794;2022-11-15T07:30:25;98487.47;;;10.43;100.00
53908;BME280;40469;47.998;7.794;2022-11-15T07:32:57;98493.56;;;10.42;100.00
53908;BME280;40469;47.998;7.794;2022-11-15T07:35:24;98482.31;;;10.38;100.00
53908;BME280;40469;47.998;7.794;2022-11-15T07:37:54;98487.50;;;10.40;100.00
53908;BME280;40469;47.998;7.794;2022-11-15T07:40:20;98483.13;;;10.40;100.00
53908;BME280;40469;47.998;7.794;2022-11-15T07:42:45;98480.53;;;10.40;100.00
53908;BME280;40469;47.998;7.794;2022-11-15T07:45:21;98486.56;;;10.44;100.00
53908;BME280;40469;47.998;7.794;2022-11-15T07:47:46;98488.31;;;10.43;100.00
53908;BME280;40469;47.998;7.794;2022-11-15T07:50:12;98488.16;;;10.51;100.00
53908;BME280;40469;47.998;7.794;2022-11-15T07:52:37;98482.97;;;10.50;100.00
53908;BME280;40469;47.998;7.794;2022-11-15T07:55:03;98479.50;;;10.49;100.00
53908;BME280;40469;47.998;7.794;2022-11-15T07:57:29;98477.66;;;10.56;100.00
53908;BME280;40469;47.998;7.794;2022-11-15T07:59:54;98468.00;;;10.61;100.00
53908;BME280;40469;47.998;7.794;2022-11-15T08:02:20;98473.94;;;10.69;100.00
53908;BME280;40469;47.998;7.794;2022-11-15T08:04:45;98470.38;;;10.75;100.00
53908;BME280;40469;47.998;7.794;2022-11-15T08:07:10;98470.19;;;10.84;100.00
53908;BME280;40469;47.998;7.794;2022-11-15T08:09:36;98474.44;;;10.88;100.00
53908;BME280;40469;47.998;7.794;2022-11-15T08:12:01;98476.09;;;10.92;100.00
53908;BME280;40469;47.998;7.794;2022-11-15T08:14:26;98474.41;;;10.91;100.00
53908;BME280;40469;47.998;7.794;2022-11-15T08:16:52;98464.81;;;10.92;100.00
53908;BME280;40469;47.998;7.794;2022-11-15T08:19:17;98473.41;;;10.97;100.00
53908;BME280;40469;47.998;7.794;2022-11-15T08:21:43;98470.81;;;10.97;100.00
53908;BME280;40469;47.998;7.794;2022-11-15T08:24:10;98464.69;;;10.98;100.00
53908;BME280;40469;47.998;7.794;2022-11-15T08:26:35;98459.38;;;11.03;100.00
53908;BME280;40469;47.998;7.794;2022-11-15T08:29:01;98459.28;;;11.07;100.00
53908;BME280;40469;47.998;7.794;2022-11-15T08:31:26;98457.56;;;11.06;100.00
53908;BME280;40469;47.998;7.794;2022-11-15T08:33:51;98461.88;;;11.09;100.00
53908;BME280;40469;47.998;7.794;2022-11-15T08:36:17;98460.81;;;11.19;100.00
53908;BME280;40469;47.998;7.794;2022-11-15T08:38:42;98458.06;;;11.25;100.00
53908;BME280;40469;47.998;7.794;2022-11-15T08:41:14;98462.44;;;11.25;100.00
53908;BME280;40469;47.998;7.794;2022-11-15T08:43:40;98456.19;;;11.32;100.00
53908;BME280;40469;47.998;7.794;2022-11-15T08:46:05;98459.66;;;11.31;100.00
53908;BME280;40469;47.998;7.794;2022-11-15T08:48:30;98458.69;;;11.36;100.00
53908;BME280;40469;47.998;7.794;2022-11-15T08:50:56;98450.97;;;11.30;100.00
53908;BME280;40469;47.998;7.794;2022-11-15T08:53:22;98460.59;;;11.28;100.00
53908;BME280;40469;47.998;7.794;2022-11-15T08:55:48;98464.91;;;11.31;100.00
53908;BME280;40469;47.998;7.794;2022-11-15T08:58:13;98469.06;;;11.39;100.00
53908;BME280;40469;47.998;7.794;2022-11-15T09:00:38;98466.44;;;11.41;100.00
53908;BME280;40469;47.998;7.794;2022-11-15T09:03:05;98467.22;;;11.45;100.00
53908;BME280;40469;47.998;7.794;2022-11-15T09:05:31;98462.78;;;11.48;100.00
53908;BME280;40469;47.998;7.794;2022-11-15T09:07:56;98471.53;;;11.47;100.00
53908;BME280;40469;47.998;7.794;2022-11-15T09:10:22;98470.81;;;11.41;100.00
53908;BME280;40469;47.998;7.794;2022-11-15T09:12:48;98471.78;;;11.36;100.00
53908;BME280;40469;47.998;7.794;2022-11-15T09:15:14;98475.34;;;11.31;100.00
53908;BME280;40469;47.998;7.794;2022-11-15T09:17:40;98477.09;;;11.32;100.00
53908;BME280;40469;47.998;7.794;2022-11-15T09:20:06;98479.09;;;11.19;100.00
53908;BME280;40469;47.998;7.794;2022-11-15T09:22:32;98467.97;;;11.08;100.00
53908;BME280;40469;47.998;7.794;2022-11-15T09:24:57;98457.75;;;10.97;100.00
53908;BME280;40469;47.998;7.794;2022-11-15T09:27:23;98460.16;;;11.06;100.00
53908;BME280;40469;47.998;7.794;2022-11-15T09:29:52;98454.16;;;11.03;100.00
53908;BME280;40469;47.998;7.794;2022-11-15T09:32:17;98462.06;;;10.99;100.00
53908;BME280;40469;47.998;7.794;2022-11-15T09:34:42;98455.97;;;10.99;100.00
53908;BME280;40469;47.998;7.794;2022-11-15T09:37:08;98449.88;;;10.98;100.00
53908;BME280;40469;47.998;7.794;2022-11-15T09:39:33;98455.88;;;11.04;100.00
53908;BME280;40469;47.998;7.794;2022-11-15T09:50:14;98448.09;;;11.43;100.00
53908;BME280;40469;47.998;7.794;2022-11-15T09:52:45;98443.47;;;11.55;100.00
53908;BME280;40469;47.998;7.794;2022-11-15T09:55:12;98439.19;;;11.51;100.00
53908;BME280;40469;47.998;7.794;2022-11-15T09:57:53;98444.28;;;11.57;100.00
53908;BME280;40469;47.998;7.794;2022-11-15T10:00:42;98438.09;;;11.62;100.00
53908;BME280;40469;47.998;7.794;2022-11-15T10:03:13;98436.25;;;11.67;100.00
53908;BME280;40469;47.998;7.794;2022-11-15T10:05:48;98419.66;;;11.68;100.00
53908;BME280;40469;47.998;7.794;2022-11-15T10:11:05;98417.47;;;11.87;100.00
53908;BME280;40469;47.998;7.794;2022-11-15T10:13:34;98414.75;;;11.93;100.00
53908;BME280;40469;47.998;7.794;2022-11-15T10:21:20;98400.56;;;12.02;100.00
53908;BME280;40469;47.998;7.794;2022-11-15T10:23:46;98402.28;;;12.03;100.00
53908;BME280;40469;47.998;7.794;2022-11-15T10:26:15;98394.34;;;12.07;100.00
53908;BME280;40469;47.998;7.794;2022-11-15T10:28:41;98385.22;;;12.22;100.00
53908;BME280;40469;47.998;7.794;2022-11-15T10:31:24;98370.28;;;12.26;100.00
53908;BME280;40469;47.998;7.794;2022-11-15T10:33:50;98372.84;;;12.29;100.00
53908;BME280;40469;47.998;7.794;2022-11-15T10:36:19;98374.75;;;12.22;100.00
53908;BME280;40469;47.998;7.794;2022-11-15T10:41:13;98379.84;;;12.28;100.00
53908;BME280;40469;47.998;7.794;2022-11-15T10:43:39;98370.97;;;12.34;100.00
53908;BME280;40469;47.998;7.794;2022-11-15T10:46:25;98362.00;;;12.43;100.00
53908;BME280;40469;47.998;7.794;2022-11-15T10:48:50;98359.03;;;12.57;100.00
53908;BME280;40469;47.998;7.794;2022-11-15T10:51:27;98348.44;;;12.60;100.00
53908;BME280;40469;47.998;7.794;2022-11-15T10:53:56;98352.94;;;12.55;100.00
53908;BME280;40469;47.998;7.794;2022-11-15T10:56:24;98346.78;;;12.57;100.00
53908;BME280;40469;47.998;7.794;2022-11-15T10:58:53;98349.50;;;12.52;100.00
53908;BME280;40469;47.998;7.794;2022-11-15T11:01:23;98341.66;;;12.52;100.00
53908;BME280;40469;47.998;7.794;2022-11-15T11:03:59;98339.28;;;12.43;100.00
53908;BME280;40469;47.998;7.794;2022-11-15T11:06:25;98333.94;;;12.48;100.00
53908;BME280;40469;47.998;7.794;2022-11-15T11:09:00;98321.09;;;12.39;100.00
53908;BME280;40469;47.998;7.794;2022-11-15T11:11:45;98321.03;;;12.40;100.00
53908;BME280;40469;47.998;7.794;2022-11-15T11:14:13;98309.59;;;12.44;100.00
53908;BME280;40469;47.998;7.794;2022-11-15T11:16:46;98311.38;;;12.42;100.00
53908;BME280;40469;47.998;7.794;2022-11-15T11:19:25;98313.66;;;12.55;100.00
53908;BME280;40469;47.998;7.794;2022-11-15T11:22:11;98304.19;;;12.50;100.00
53908;BME280;40469;47.998;7.794;2022-11-15T11:24:48;98297.03;;;12.57;100.00
53908;BME280;40469;47.998;7.794;2022-11-15T11:27:42;98297.88;;;12.58;100.00
53908;BME280;40469;47.998;7.794;2022-11-15T11:35:19;98281.31;;;12.57;100.00
53908;BME280;40469;47.998;7.794;2022-11-15T11:37:51;98271.84;;;12.53;100.00
53908;BME280;40469;47.998;7.794;2022-11-15T11:43:15;98264.78;;;12.55;100.00
53908;BME280;40469;47.998;7.794;2022-11-15T11:48:40;98248.84;;;12.63;100.00
53908;BME280;40469;47.998;7.794;2022-11-15T11:51:40;98245.28;;;12.65;100.00
53908;BME280;40469;47.998;7.794;2022-11-15T11:54:12;98245.09;;;12.71;100.00
53908;BME280;40469;47.998;7.794;2022-11-15T11:56:41;98237.22;;;12.71;100.00
53908;BME280;40469;47.998;7.794;2022-11-15T12:02:25;98244.97;;;12.76;100.00
53908;BME280;40469;47.998;7.794;2022-11-15T12:04:58;98236.44;;;12.69;100.00
53908;BME280;40469;47.998;7.794;2022-11-15T12:07:32;98219.28;;;12.59;100.00
53908;BME280;40469;47.998;7.794;2022-11-15T12:10:03;98216.66;;;12.59;100.00
53908;BME280;40469;47.998;7.794;2022-11-15T12:17:30;98204.56;;;12.55;100.00
53908;BME280;40469;47.998;7.794;2022-11-15T12:20:02;98205.69;;;12.46;100.00
53908;BME280;40469;47.998;7.794;2022-11-15T12:25:21;98196.72;;;12.55;100.00
53908;BME280;40469;47.998;7.794;2022-11-15T12:27:52;98190.22;;;12.67;100.00
53908;BME280;40469;47.998;7.794;2022-11-15T12:30:21;98190.00;;;12.75;100.00
53908;BME280;40469;47.998;7.794;2022-11-15T12:32:54;98191.59;;;12.79;100.00
53908;BME280;40469;47.998;7.794;2022-11-15T12:35:35;98194.69;;;12.92;100.00
53908;BME280;40469;47.998;7.794;2022-11-15T12:38:03;98181.53;;;12.93;100.00
53908;BME280;40469;47.998;7.794;2022-11-15T12:40:31;98189.19;;;12.73;100.00
53908;BME280;40469;47.998;7.794;2022-11-15T12:53:36;98164.38;;;12.56;100.00
53908;BME280;40469;47.998;7.794;2022-11-15T13:07:04;98133.91;;;12.54;100.00
53908;BME280;40469;47.998;7.794;2022-11-15T13:14:54;98116.38;;;12.56;100.00
53908;BME280;40469;47.998;7.794;2022-11-15T13:19:46;98107.38;;;12.64;100.00
53908;BME280;40469;47.998;7.794;2022-11-15T13:22:12;98111.50;;;12.71;100.00
53908;BME280;40469;47.998;7.794;2022-11-15T13:25:01;98102.13;;;12.64;100.00
53908;BME280;40469;47.998;7.794;2022-11-15T13:27:27;98097.91;;;12.60;100.00
53908;BME280;40469;47.998;7.794;2022-11-15T13:29:53;98098.91;;;12.56;100.00
53908;BME280;40469;47.998;7.794;2022-11-15T13:32:19;98092.16;;;12.49;100.00
53908;BME280;40469;47.998;7.794;2022-11-15T13:34:46;98074.97;;;12.40;100.00
53908;BME280;40469;47.998;7.794;2022-11-15T13:37:31;98074.25;;;12.35;100.00
53908;BME280;40469;47.998;7.794;2022-11-15T13:40:15;98069.00;;;12.35;100.00
53908;BME280;40469;47.998;7.794;2022-11-15T13:42:46;98074.91;;;12.42;100.00
53908;BME280;40469;47.998;7.794;2022-11-15T13:45:15;98061.66;;;12.48;100.00
53908;BME280;40469;47.998;7.794;2022-11-15T13:47:41;98063.91;;;12.59;100.00
53908;BME280;40469;47.998;7.794;2022-11-15T13:50:10;98061.03;;;12.66;100.00
53908;BME280;40469;47.998;7.794;2022-11-15T13:52:37;98055.97;;;12.62;100.00
53908;BME280;40469;47.998;7.794;2022-11-15T13:55:17;98044.97;;;12.50;100.00
53908;BME280;40469;47.998;7.794;2022-11-15T13:58:10;98045.38;;;12.38;100.00
53908;BME280;40469;47.998;7.794;2022-11-15T14:00:45;98040.19;;;12.37;100.00
53908;BME280;40469;47.998;7.794;2022-11-15T14:05:39;98035.19;;;12.29;100.00
53908;BME280;40469;47.998;7.794;2022-11-15T14:08:22;98033.25;;;12.36;100.00
53908;BME280;40469;47.998;7.794;2022-11-15T14:10:48;98038.22;;;12.43;100.00
53908;BME280;40469;47.998;7.794;2022-11-15T14:13:28;98033.84;;;12.44;100.00
53908;BME280;40469;47.998;7.794;2022-11-15T14:15:54;98028.78;;;12.39;100.00
53908;BME280;40469;47.998;7.794;2022-11-15T14:18:41;98031.84;;;12.52;100.00
53908;BME280;40469;47.998;7.794;2022-11-15T14:21:08;98020.22;;;12.61;100.00
53908;BME280;40469;47.998;7.794;2022-11-15T14:23:33;98020.56;;;12.50;100.00
53908;BME280;40469;47.998;7.794;2022-11-15T14:25:59;98010.41;;;12.41;100.00
53908;BME280;40469;47.998;7.794;2022-11-15T14:30:52;98007.44;;;12.51;100.00
53908;BME280;40469;47.998;7.794;2022-11-15T14:35:53;98000.56;;;12.47;100.00
53908;BME280;40469;47.998;7.794;2022-11-15T14:38:19;97997.94;;;12.47;100.00
53908;BME280;40469;47.998;7.794;2022-11-15T14:40:45;97998.66;;;12.52;100.00
53908;BME280;40469;47.998;7.794;2022-11-15T14:43:11;97994.47;;;12.47;100.00